Airfield :
LOGIN :

Register | Disclaimer

   EN    FR    IT 

 










Legend :    VFR   Marginal VFR   IFR   Intensive IFR   Very Intensive IFR
Visi :
Ceiling :
>= 8 km
>= 3000ft
5 to 8 km
1000 to 3000 ft
1500m to 5 km
500 to 1000 ft
800 to 1500m
200 to 500 ft
< 800m
< 200 ft
Symbols :   Thunderstorms  Fog  Heavy snow  Heavy precipitations  Wind > 20 kt
SIGMETs :     Misc.  Thunderstorms  Icing  Turbulence  Mountain Waves  Volcanic Ashes






- Airport Elevation : 42 ft
- IATA code : KGD


UMKK - Khrabrava - Kaliningrad

CURRENT METAR :
  • 270730Z 21003MPS 8000 BKN006 OVC016 01/M00 Q1013 R24/290095 NOSIG RMK QBB180 OBST OBSC QFE759/1012

EXPIRED METARs :
  • 270700Z 21002MPS 8000 BKN006 OVC015 01/M00 Q1013 R24/290095 NOSIG RMK QBB180 OBST OBSC QFE759/1012
  • 270630Z 20003MPS 6000 BKN006 OVC015 01/M00 Q1013 R24/290095 NOSIG RMK QBB180 OBST OBSC QFE759/1012
  • 270600Z 21003MPS 7000 BKN006 OVC014 01/00 Q1013 R24/290095 NOSIG RMK QBB180 OBST OBSC QFE759/1012
  • 270530Z 21003MPS 5000 BR BKN005 OVC014 01/00 Q1014 R24/290195 NOSIG RMK QBB150 OBST OBSC QFE759/1012
  • 270500Z 21003MPS 6000 BKN006 OVC014 01/00 Q1014 R24/290195 NOSIG RMK QBB180 OBST OBSC QFE759/1012

TAF TAF UMKK
Valid from the 27 at 06:00 until the 28 at 06:00 UTC


270459Z 2706/2806 20003G08MPS 6000 FEW005 BKN011
TEMPO 2706/2709 3100 BR BKN006
BECMG 2710/2712 18003G08MPS
BECMG 2720/2722 4000 -DZRA BR FEW004 BKN010
TEMPO 2722/2806 3100 -RADZ BR BKN005
BECMG 2800/2802 16005G10MPS



MET'MAP, your aeronautical weather chart ! - Copyright ORBIFLY December 2007 - Disclaimer

ORBIFLY MET'MAP TEAM :

Programming & Development : Alexandra Zaïnal
Concept & original design : Baudouin d'Aumeries
Assistance for programming : Marc-Olivier Méhu
Technical & hardware support : Manuel Goepfert

Contact : metmap@orbifly.com




SOURCES & CREDITS :

   NOAA